Time;durP1;ratioP1;P1;durP2;ratioP2;P2;SDS_P1;SDS_P2;PMS_P1;PMS_P2;Temp;Humidity;BMP_temperature;BMP_pressure;BME280_temperature;BME280_humidity;BME280_pressure;Samples;Min_cycle;Max_cycle;Signal;HPM_P1;HPM_P2
2023/01/09 00:00:51;;;;;;;2.40;1.57;;;9.00;1.00;;;;;;4878367;29;20211;-67
2023/01/09 00:03:18;;;;;;;3.97;1.63;;;9.10;1.00;;;;;;4857926;29;20789;-66
2023/01/09 00:05:45;;;;;;;3.03;1.27;;;9.10;1.00;;;;;;4844649;29;20202;-66
2023/01/09 00:08:12;;;;;;;2.10;1.60;;;9.10;1.00;;;;;;4860909;29;20228;-66
2023/01/09 00:10:39;;;;;;;1.50;1.40;;;9.10;1.00;;;;;;4862141;29;20682;-66
2023/01/09 00:13:09;;;;;;;3.33;1.60;;;9.10;1.00;;;;;;4851841;29;20212;-66
2023/01/09 00:15:37;;;;;;;3.40;1.60;;;9.10;1.00;;;;;;4845834;29;20753;-66
2023/01/09 00:18:05;;;;;;;2.07;1.40;;;9.10;1.00;;;;;;4868038;29;20205;-65
2023/01/09 00:20:32;;;;;;;2.60;1.60;;;9.10;1.00;;;;;;4852785;29;20631;-64
2023/01/09 00:22:59;;;;;;;3.00;1.67;;;9.10;1.00;;;;;;4875228;29;20201;-65
2023/01/09 00:25:26;;;;;;;3.17;1.50;;;9.10;1.00;;;;;;4858934;29;20633;-64
2023/01/09 00:27:53;;;;;;;2.30;1.43;;;9.00;1.00;;;;;;4858129;29;20718;-65
2023/01/09 00:30:20;;;;;;;2.20;2.00;;;9.00;1.00;;;;;;4850850;29;20230;-65
2023/01/09 00:32:47;;;;;;;3.63;1.30;;;8.90;1.00;;;;;;4861037;29;20204;-65
2023/01/09 00:35:16;;;;;;;1.93;1.40;;;8.90;1.00;;;;;;4877765;29;20409;-65
2023/01/09 00:37:43;;;;;;;2.30;1.70;;;8.80;1.00;;;;;;4860316;29;20292;-65
2023/01/09 00:40:12;;;;;;;1.80;1.57;;;8.80;1.00;;;;;;4869101;29;20257;-73
2023/01/09 00:42:41;;;;;;;2.27;1.10;;;8.70;1.00;;;;;;4860671;29;20197;-65
2023/01/09 00:45:13;;;;;;;4.10;1.40;;;8.70;1.00;;;;;;4860923;29;20622;-65
2023/01/09 00:47:45;;;;;;;2.13;1.13;;;8.60;1.00;;;;;;4860691;29;20205;-65
2023/01/09 00:50:24;;;;;;;3.03;1.30;;;8.50;1.00;;;;;;4876458;29;20265;-65
2023/01/09 00:52:54;;;;;;;1.20;1.10;;;8.40;1.00;;;;;;4877274;29;20245;-65
2023/01/09 00:55:22;;;;;;;1.40;1.00;;;8.40;1.00;;;;;;4860936;29;20270;-64
2023/01/09 00:57:49;;;;;;;1.37;1.00;;;8.30;1.00;;;;;;4844160;29;20202;-65
2023/01/09 01:00:17;;;;;;;1.07;0.97;;;8.20;1.00;;;;;;4876317;29;20293;-64
2023/01/09 01:02:44;;;;;;;1.97;1.03;;;8.20;1.00;;;;;;4874813;29;20667;-64
2023/01/09 01:07:56;;;;;;;1.63;0.97;;;8.00;1.00;;;;;;4874882;29;20193;-66
2023/01/09 01:10:25;;;;;;;3.33;1.00;;;8.00;1.00;;;;;;4876073;29;20698;-64
2023/01/09 01:12:52;;;;;;;0.70;0.70;;;8.00;1.00;;;;;;4843626;29;20233;-64
2023/01/09 01:15:20;;;;;;;0.73;0.73;;;8.00;1.00;;;;;;4860371;29;20615;-64
2023/01/09 01:17:47;;;;;;;1.13;0.90;;;7.90;1.00;;;;;;4865728;29;20267;-69
2023/01/09 01:20:17;;;;;;;1.10;0.83;;;7.80;1.00;;;;;;4874749;29;20686;-63
2023/01/09 01:22:45;;;;;;;0.80;0.80;;;7.80;1.00;;;;;;4852209;29;20204;-63
2023/01/09 01:25:15;;;;;;;0.80;0.80;;;7.80;1.00;;;;;;4852537;29;20201;-63
2023/01/09 01:27:43;;;;;;;1.37;0.90;;;7.70;1.00;;;;;;4857844;29;20197;-64
2023/01/09 01:30:13;;;;;;;1.63;0.90;;;7.70;10.90;;;;;;4874339;29;20344;-64
2023/01/09 01:32:40;;;;;;;1.00;0.73;;;7.70;30.40;;;;;;4859890;29;20260;-62
2023/01/09 01:35:08;;;;;;;1.40;0.90;;;7.70;39.20;;;;;;4867146;29;20225;-62
2023/01/09 01:37:37;;;;;;;0.87;0.80;;;7.70;40.30;;;;;;4876994;29;20213;-65
2023/01/09 01:40:06;;;;;;;0.93;0.90;;;7.60;59.30;;;;;;4859899;29;20229;-68
2023/01/09 01:42:33;;;;;;;0.73;0.73;;;7.60;83.40;;;;;;4872275;29;20738;-64
2023/01/09 01:45:03;;;;;;;0.97;0.90;;;7.60;99.90;;;;;;4865908;29;20209;-64
2023/01/09 01:47:52;;;;;;;1.40;1.20;;;7.60;99.90;;;;;;4858357;29;20205;-67
2023/01/09 01:50:31;;;;;;;0.93;0.70;;;7.50;99.90;;;;;;4874838;29;20202;-65
2023/01/09 01:53:09;;;;;;;0.90;0.90;;;7.50;99.90;;;;;;4875178;29;20197;-64
2023/01/09 01:55:42;;;;;;;0.87;0.80;;;7.50;99.90;;;;;;4873819;29;20225;-64
2023/01/09 01:58:13;;;;;;;0.73;0.73;;;7.40;99.90;;;;;;4875773;29;20673;-65
2023/01/09 02:00:44;;;;;;;0.97;0.80;;;7.40;99.90;;;;;;4859335;29;20225;-65
2023/01/09 02:03:14;;;;;;;0.87;0.80;;;7.40;99.90;;;;;;4872984;23;20195;-74
2023/01/09 02:05:41;;;;;;;1.00;0.90;;;7.40;99.90;;;;;;4871524;23;20714;-75
2023/01/09 02:08:08;;;;;;;1.00;0.80;;;7.40;99.90;;;;;;4864051;29;20579;-75
2023/01/09 02:10:38;;;;;;;1.07;0.97;;;7.40;99.90;;;;;;4854879;29;20214;-75
2023/01/09 02:13:07;;;;;;;0.80;0.80;;;7.40;99.90;;;;;;4863378;29;20214;-74
2023/01/09 02:15:59;;;;;;;0.80;0.80;;;7.40;99.90;;;;;;4834211;29;20203;-73
2023/01/09 02:18:57;;;;;;;1.10;1.00;;;7.40;99.90;;;;;;4844706;29;20202;-74
2023/01/09 02:21:58;;;;;;;0.70;0.70;;;7.40;99.90;;;;;;4860185;29;20266;-73
2023/01/09 02:24:25;;;;;;;1.13;0.90;;;7.40;82.30;;;;;;4838888;29;20198;-74
2023/01/09 02:27:08;;;;;;;0.70;0.70;;;7.40;80.10;;;;;;4862780;29;20611;-74
2023/01/09 02:29:50;;;;;;;0.80;0.80;;;7.40;80.00;;;;;;4838188;29;20608;-74
2023/01/09 02:32:29;;;;;;;0.60;0.60;;;7.40;59.10;;;;;;4853777;29;20304;-74
2023/01/09 02:35:03;;;;;;;0.80;0.80;;;7.40;72.50;;;;;;4852604;29;20713;-74
2023/01/09 02:37:57;;;;;;;0.80;0.80;;;7.40;63.80;;;;;;4851615;29;20195;-73
2023/01/09 02:40:37;;;;;;;1.23;0.80;;;7.40;65.40;;;;;;4848744;29;20259;-74
2023/01/09 02:43:06;;;;;;;3.10;0.80;;;7.50;50.10;;;;;;4848390;29;20258;-76
2023/01/09 02:45:33;;;;;;;0.90;0.80;;;7.50;65.00;;;;;;4849794;29;20190;-73
2023/01/09 02:48:00;;;;;;;0.70;0.70;;;7.50;35.50;;;;;;4854658;29;20648;-73
2023/01/09 02:50:46;;;;;;;1.37;1.00;;;7.50;25.80;;;;;;4861708;29;20698;-74
2023/01/09 02:53:25;;;;;;;1.17;1.00;;;7.50;22.70;;;;;;4844127;29;20266;-73
2023/01/09 02:56:30;;;;;;;2.10;1.00;;;7.50;40.20;;;;;;4848246;29;20194;-74
2023/01/09 02:59:16;;;;;;;1.07;1.00;;;7.60;10.00;;;;;;4839386;29;20207;-74
2023/01/09 03:01:50;;;;;;;1.23;1.13;;;7.50;7.90;;;;;;4860983;29;20206;-73
2023/01/09 03:04:45;;;;;;;0.90;0.90;;;7.40;5.90;;;;;;4853318;29;20233;-73
2023/01/09 03:07:31;;;;;;;0.93;0.80;;;7.40;13.10;;;;;;4832512;29;20214;-74
2023/01/09 03:10:09;;;;;;;1.10;1.00;;;7.40;9.90;;;;;;4848280;29;20734;-74
2023/01/09 03:12:38;;;;;;;1.07;1.00;;;7.40;4.80;;;;;;4847615;29;20225;-75
2023/01/09 03:15:10;;;;;;;1.27;1.17;;;7.30;1.00;;;;;;4855043;29;20682;-74
2023/01/09 03:17:41;;;;;;;1.30;1.20;;;7.30;1.00;;;;;;4853401;29;20609;-74
2023/01/09 03:20:13;;;;;;;3.77;1.20;;;7.20;7.10;;;;;;4847836;29;20608;-75
2023/01/09 03:22:51;;;;;;;1.40;1.30;;;7.20;9.10;;;;;;4848485;29;20274;-75
2023/01/09 03:25:19;;;;;;;1.57;1.40;;;7.10;30.00;;;;;;4853938;29;20209;-73
2023/01/09 03:27:46;;;;;;;1.40;1.30;;;7.10;30.40;;;;;;4848188;29;20671;-73
2023/01/09 03:30:13;;;;;;;2.17;1.40;;;7.20;9.70;;;;;;4853202;29;20217;-73
2023/01/09 03:32:40;;;;;;;3.37;1.43;;;7.30;8.00;;;;;;4852583;29;21234;-75
2023/01/09 03:35:08;;;;;;;1.60;1.30;;;7.30;15.50;;;;;;4844566;29;20337;-80
2023/01/09 03:37:37;;;;;;;3.93;1.53;;;7.20;18.40;;;;;;4847422;29;20563;-80
2023/01/09 03:40:04;;;;;;;2.17;1.30;;;7.20;2.80;;;;;;4861659;29;20250;-79
2023/01/09 03:42:31;;;;;;;3.03;1.80;;;7.20;8.30;;;;;;4846711;29;20229;-77
2023/01/09 03:44:58;;;;;;;6.00;4.10;;;7.20;13.30;;;;;;4862961;29;20250;-76
2023/01/09 03:47:25;;;;;;;13.10;8.87;;;7.20;3.80;;;;;;4848432;29;20249;-78
2023/01/09 03:49:53;;;;;;;10.20;6.70;;;7.10;8.00;;;;;;4851893;29;20222;-78
2023/01/09 03:52:20;;;;;;;9.27;4.63;;;7.20;1.00;;;;;;4850992;29;20293;-79
2023/01/09 03:54:47;;;;;;;7.20;4.20;;;7.10;1.00;;;;;;4846742;29;20297;-79
2023/01/09 03:57:14;;;;;;;5.93;3.10;;;7.10;1.00;;;;;;4836888;29;20206;-78
2023/01/09 03:59:41;;;;;;;6.03;3.37;;;7.10;1.90;;;;;;4854342;29;20228;-77
2023/01/09 04:02:08;;;;;;;3.27;2.70;;;7.10;10.20;;;;;;4851184;29;20222;-77
2023/01/09 04:04:35;;;;;;;5.67;3.30;;;7.20;8.30;;;;;;4845895;29;20860;-78
2023/01/09 04:07:03;;;;;;;5.40;3.10;;;7.30;1.00;;;;;;4838835;29;20722;-78
2023/01/09 04:09:30;;;;;;;3.77;2.50;;;7.40;1.00;;;;;;4851696;29;20281;-77
2023/01/09 04:11:57;;;;;;;4.63;2.80;;;7.30;1.00;;;;;;4850291;29;20210;-78
2023/01/09 04:14:24;;;;;;;4.50;3.10;;;7.30;1.00;;;;;;4850286;29;20207;-78
2023/01/09 04:16:51;;;;;;;5.13;3.10;;;7.40;1.00;;;;;;4844755;29;20222;-79
2023/01/09 04:19:18;;;;;;;5.10;3.57;;;7.40;1.00;;;;;;4861299;29;20211;-76
2023/01/09 04:21:45;;;;;;;5.43;3.77;;;7.30;1.00;;;;;;4851759;29;20223;-79
2023/01/09 04:24:12;;;;;;;4.10;3.07;;;7.30;1.00;;;;;;4864194;29;20206;-78
2023/01/09 04:26:39;;;;;;;3.70;3.00;;;7.30;1.00;;;;;;4866426;29;20214;-81
2023/01/09 04:29:06;;;;;;;5.13;3.50;;;7.20;1.00;;;;;;4855396;29;20620;-78
2023/01/09 04:31:33;;;;;;;5.77;3.43;;;7.20;1.00;;;;;;4849391;29;20854;-77
2023/01/09 04:34:01;;;;;;;8.33;3.00;;;7.20;5.30;;;;;;4849519;29;20267;-82
2023/01/09 04:36:28;;;;;;;8.37;3.47;;;7.30;7.30;;;;;;4851030;29;20199;-78
2023/01/09 04:38:55;;;;;;;5.43;2.20;;;7.30;1.00;;;;;;4852100;29;20297;-78
2023/01/09 04:44:07;;;;;;;3.97;2.60;;;7.30;1.00;;;;;;4851877;29;20203;-77
2023/01/09 04:46:34;;;;;;;4.13;3.07;;;7.30;1.00;;;;;;4849597;29;20293;-79
2023/01/09 04:49:01;;;;;;;5.13;2.20;;;7.20;3.40;;;;;;4851646;29;20203;-79
2023/01/09 04:51:28;;;;;;;4.63;2.80;;;7.00;10.60;;;;;;4835075;29;20198;-78
2023/01/09 04:53:55;;;;;;;5.37;2.57;;;6.90;19.90;;;;;;4839682;29;20227;-76
2023/01/09 04:56:23;;;;;;;4.20;2.70;;;6.80;30.00;;;;;;4850498;29;20199;-75
2023/01/09 04:58:50;;;;;;;6.57;3.33;;;6.70;41.90;;;;;;4850165;29;20575;-74
2023/01/09 05:01:17;;;;;;;6.17;2.80;;;6.70;56.30;;;;;;4850298;29;20226;-77
2023/01/09 05:03:44;;;;;;;3.87;2.73;;;6.80;64.90;;;;;;4851419;29;20223;-75
2023/01/09 05:06:11;;;;;;;6.00;2.43;;;6.90;37.70;;;;;;4840930;29;20210;-75
2023/01/09 05:08:38;;;;;;;6.87;2.83;;;7.00;7.80;;;;;;4841079;29;20215;-77
2023/01/09 05:11:05;;;;;;;3.20;2.10;;;6.90;1.00;;;;;;4857110;29;20203;-75
2023/01/09 05:13:33;;;;;;;4.33;2.90;;;7.50;1.00;;;;;;4855202;29;20197;-76
2023/01/09 05:16:00;;;;;;;7.30;2.57;;;6.90;1.00;;;;;;4835841;29;20207;-75
2023/01/09 05:18:27;;;;;;;5.03;2.80;;;7.00;1.00;;;;;;4839242;29;20198;-75
2023/01/09 05:20:54;;;;;;;6.47;2.33;;;7.00;1.00;;;;;;4852768;29;20306;-76
2023/01/09 05:23:21;;;;;;;4.60;2.00;;;7.20;1.00;;;;;;4848293;29;20231;-76
2023/01/09 05:25:48;;;;;;;2.97;2.20;;;7.20;1.00;;;;;;4834792;29;20207;-74
2023/01/09 05:28:16;;;;;;;4.77;2.43;;;7.10;1.00;;;;;;4849690;29;20713;-75
2023/01/09 05:30:43;;;;;;;4.07;2.17;;;7.00;1.00;;;;;;4853390;29;20214;-74
2023/01/09 05:33:10;;;;;;;3.70;1.80;;;7.00;1.00;;;;;;4849367;29;20214;-75
2023/01/09 05:35:37;;;;;;;8.43;3.10;;;6.90;1.00;;;;;;4859025;29;20286;-75
2023/01/09 05:38:04;;;;;;;4.77;2.00;;;6.80;1.00;;;;;;4860460;29;20298;-75
2023/01/09 05:40:31;;;;;;;4.33;1.93;;;6.80;1.00;;;;;;4851586;29;20226;-75
2023/01/09 05:43:06;;;;;;;4.03;1.93;;;6.60;1.00;;;;;;4852026;29;20273;-77
2023/01/09 05:45:34;;;;;;;7.43;2.27;;;6.50;1.00;;;;;;4862457;29;20782;-77
2023/01/09 05:48:01;;;;;;;3.60;1.87;;;6.50;1.00;;;;;;4850751;29;20281;-74
2023/01/09 05:50:29;;;;;;;3.60;2.33;;;6.50;1.00;;;;;;4853749;29;20281;-74
2023/01/09 05:52:56;;;;;;;5.90;2.30;;;6.60;1.00;;;;;;4849970;29;20210;-74
2023/01/09 05:55:23;;;;;;;6.30;2.00;;;6.60;1.00;;;;;;4850506;29;20607;-74
2023/01/09 05:57:50;;;;;;;7.97;2.20;;;6.50;1.00;;;;;;4849861;29;20601;-76
2023/01/09 06:00:18;;;;;;;7.60;2.53;;;6.40;1.00;;;;;;4848485;29;20258;-74
2023/01/09 06:02:45;;;;;;;4.83;2.40;;;6.30;1.00;;;;;;4851285;29;20207;-75
2023/01/09 06:05:12;;;;;;;3.43;3.10;;;6.20;1.00;;;;;;4838124;29;20285;-75
2023/01/09 06:07:40;;;;;;;13.40;3.80;;;6.10;1.00;;;;;;4852997;29;20674;-74
2023/01/09 06:10:10;;;;;;;5.50;3.23;;;6.00;1.00;;;;;;4851358;29;20682;-76
2023/01/09 06:12:38;;;;;;;12.70;4.20;;;6.10;1.00;;;;;;4854884;29;20199;-74
2023/01/09 06:15:07;;;;;;;8.07;4.13;;;6.30;1.00;;;;;;4840368;29;20246;-74
2023/01/09 06:17:35;;;;;;;12.90;5.20;;;6.30;1.00;;;;;;4855066;29;20203;-76
2023/01/09 06:20:15;;;;;;;11.67;6.67;;;6.30;1.00;;;;;;4856682;29;20206;-75
2023/01/09 06:22:44;;;;;;;16.90;7.13;;;6.30;1.00;;;;;;4847379;29;20202;-75
2023/01/09 06:25:12;;;;;;;7.80;3.50;;;6.50;1.00;;;;;;4854467;29;20202;-76
2023/01/09 06:27:39;;;;;;;7.87;2.87;;;6.50;1.00;;;;;;4861278;29;20219;-75
2023/01/09 06:30:07;;;;;;;13.43;5.93;;;6.70;1.00;;;;;;4852549;29;20202;-76
2023/01/09 06:32:38;;;;;;;6.30;3.17;;;6.80;1.00;;;;;;4835260;29;20202;-74
2023/01/09 06:35:06;;;;;;;6.97;2.60;;;6.80;1.00;;;;;;4854023;29;20697;-73
2023/01/09 06:37:33;;;;;;;7.90;2.97;;;6.90;1.00;;;;;;4848762;29;20258;-77
2023/01/09 06:40:00;;;;;;;3.47;2.50;;;6.90;1.00;;;;;;4851923;29;20297;-77
2023/01/09 06:42:27;;;;;;;5.97;2.20;;;6.90;1.00;;;;;;4844874;29;20317;-79
2023/01/09 06:44:54;;;;;;;6.87;2.33;;;6.90;1.00;;;;;;4852688;29;20195;-77
2023/01/09 06:47:21;;;;;;;9.73;3.50;;;6.90;1.00;;;;;;4849216;29;20266;-77
2023/01/09 06:49:48;;;;;;;4.23;2.00;;;6.90;1.00;;;;;;4847250;29;20189;-78
2023/01/09 06:52:15;;;;;;;5.47;2.27;;;7.00;1.00;;;;;;4860588;29;20206;-78
2023/01/09 06:54:42;;;;;;;10.43;2.40;;;7.00;1.00;;;;;;4852366;29;20190;-78
2023/01/09 06:57:09;;;;;;;6.10;2.53;;;7.00;1.00;;;;;;4847220;29;20209;-77
2023/01/09 06:59:36;;;;;;;5.83;2.10;;;7.00;1.00;;;;;;4852620;29;20198;-77
2023/01/09 07:02:03;;;;;;;9.37;3.27;;;7.00;1.00;;;;;;4847775;29;20274;-77
2023/01/09 07:04:30;;;;;;;9.23;2.17;;;7.00;1.00;;;;;;4848061;29;20262;-77
2023/01/09 07:06:57;;;;;;;4.43;2.27;;;6.90;1.00;;;;;;4858374;29;20202;-77
2023/01/09 07:09:24;;;;;;;4.53;2.00;;;6.90;1.00;;;;;;4863272;29;20577;-77
2023/01/09 07:11:51;;;;;;;6.43;3.23;;;6.90;1.00;;;;;;4842742;29;20197;-77
2023/01/09 07:14:18;;;;;;;5.10;1.70;;;6.90;1.00;;;;;;4851652;29;20207;-77
2023/01/09 07:16:45;;;;;;;9.37;3.80;;;6.90;1.00;;;;;;4850429;29;20368;-76
2023/01/09 07:19:12;;;;;;;7.00;3.23;;;6.90;1.00;;;;;;4837267;29;20293;-76
2023/01/09 07:21:39;;;;;;;8.43;2.20;;;6.90;1.00;;;;;;4850448;29;20698;-74
2023/01/09 07:24:07;;;;;;;5.03;2.00;;;6.90;1.00;;;;;;4858111;29;20206;-74
2023/01/09 07:26:34;;;;;;;3.07;1.50;;;6.90;1.00;;;;;;4858390;29;20230;-76
2023/01/09 07:29:01;;;;;;;5.57;2.00;;;7.00;1.00;;;;;;4868411;29;20213;-76
2023/01/09 07:31:28;;;;;;;10.30;5.03;;;7.00;1.00;;;;;;4838475;29;20203;-76
2023/01/09 07:34:01;;;;;;;7.30;2.17;;;7.10;1.00;;;;;;4856258;29;20705;-75
2023/01/09 07:36:28;;;;;;;6.27;2.07;;;7.00;1.00;;;;;;4858284;29;20677;-73
2023/01/09 07:38:56;;;;;;;7.13;1.77;;;7.00;1.00;;;;;;4858052;29;20210;-75
2023/01/09 07:41:26;;;;;;;7.73;2.70;;;7.00;1.00;;;;;;4857288;29;20693;-74
2023/01/09 07:43:53;;;;;;;4.70;1.80;;;6.90;1.00;;;;;;4856695;29;20312;-75
2023/01/09 07:46:20;;;;;;;5.73;1.73;;;6.90;1.00;;;;;;4853192;29;20254;-74
2023/01/09 07:48:47;;;;;;;4.27;1.83;;;6.90;1.00;;;;;;4865164;29;20350;-74
2023/01/09 07:51:14;;;;;;;3.77;1.60;;;6.90;1.00;;;;;;4855164;29;20199;-74
2023/01/09 07:53:41;;;;;;;2.30;1.33;;;6.90;1.00;;;;;;4835648;29;20223;-74
2023/01/09 07:56:09;;;;;;;8.00;1.83;;;6.90;1.00;;;;;;4837515;29;20624;-74
2023/01/09 07:58:37;;;;;;;1.67;1.30;;;6.90;1.00;;;;;;4848184;29;20463;-74
2023/01/09 08:01:04;;;;;;;4.53;1.77;;;6.90;1.00;;;;;;4854871;29;20242;-74
2023/01/09 08:03:32;;;;;;;4.63;1.63;;;6.90;1.00;;;;;;4852559;29;20223;-75
2023/01/09 08:06:00;;;;;;;5.97;1.60;;;6.90;1.00;;;;;;4842551;29;20206;-76
2023/01/09 08:08:27;;;;;;;4.83;1.33;;;6.90;1.00;;;;;;4846133;29;20671;-74
2023/01/09 08:10:55;;;;;;;3.57;2.40;;;6.90;1.00;;;;;;4851725;29;20283;-75
2023/01/09 08:13:21;;;;;;;8.13;1.97;;;7.00;1.00;;;;;;4854166;29;20203;-74
2023/01/09 08:15:49;;;;;;;4.70;1.47;;;7.00;1.00;;;;;;4849464;29;20206;-74
2023/01/09 08:18:16;;;;;;;2.57;1.30;;;7.10;1.00;;;;;;4842222;29;20210;-74
2023/01/09 08:20:43;;;;;;;3.73;1.20;;;7.10;1.00;;;;;;4850779;29;20205;-76
2023/01/09 08:23:10;;;;;;;3.27;1.50;;;7.70;1.00;;;;;;4840651;29;20214;-74
2023/01/09 08:25:38;;;;;;;6.77;1.77;;;7.20;1.00;;;;;;4852501;29;20210;-74
2023/01/09 08:28:05;;;;;;;3.03;1.37;;;7.20;1.00;;;;;;4849830;29;20203;-79
2023/01/09 08:30:32;;;;;;;6.13;1.43;;;7.20;1.00;;;;;;4848110;29;20806;-78
2023/01/09 08:32:59;;;;;;;7.37;1.60;;;7.20;1.00;;;;;;4836210;29;20237;-77
2023/01/09 08:35:26;;;;;;;3.63;1.40;;;7.30;1.00;;;;;;4851176;29;20756;-76
2023/01/09 08:37:53;;;;;;;4.10;1.40;;;7.50;1.00;;;;;;4847764;29;20207;-78
2023/01/09 08:40:20;;;;;;;3.87;1.80;;;7.50;1.00;;;;;;4858022;29;20202;-77
2023/01/09 08:48:19;;;;;;;3.87;1.90;;;7.60;1.00;;;;;;4852938;29;20649;-77
2023/01/09 08:50:46;;;;;;;4.37;1.47;;;7.70;1.00;;;;;;4836847;29;20211;-77
2023/01/09 08:53:14;;;;;;;6.20;1.40;;;7.80;1.00;;;;;;4861549;29;20211;-76
2023/01/09 08:55:42;;;;;;;4.10;1.47;;;7.90;1.00;;;;;;4848772;29;20214;-77
2023/01/09 08:58:09;;;;;;;7.83;1.70;;;8.00;1.00;;;;;;4852705;29;20198;-76
2023/01/09 09:00:36;;;;;;;4.43;1.40;;;8.10;1.00;;;;;;4848263;29;20207;-75
2023/01/09 09:03:03;;;;;;;2.77;1.60;;;8.30;1.00;;;;;;4854268;29;20298;-78
2023/01/09 09:05:31;;;;;;;2.33;1.30;;;8.50;1.00;;;;;;4835747;29;20346;-76
2023/01/09 09:07:59;;;;;;;4.70;1.50;;;8.50;1.00;;;;;;4859131;29;20202;-78
2023/01/09 09:10:27;;;;;;;5.00;1.40;;;8.60;1.00;;;;;;4848272;29;20198;-76
2023/01/09 09:12:56;;;;;;;3.07;1.30;;;8.60;1.00;;;;;;4847720;29;20667;-76
2023/01/09 09:15:25;;;;;;;6.50;1.40;;;8.60;1.00;;;;;;4834163;29;20735;-77
2023/01/09 09:17:57;;;;;;;2.90;1.30;;;8.60;1.00;;;;;;4829932;29;20211;-76
2023/01/09 09:20:27;;;;;;;3.17;1.20;;;8.70;1.00;;;;;;4848140;29;20191;-78
2023/01/09 09:22:54;;;;;;;4.07;1.33;;;8.80;1.00;;;;;;4848084;29;20215;-76
2023/01/09 09:25:22;;;;;;;4.43;1.07;;;8.80;1.00;;;;;;4851485;29;20207;-78
2023/01/09 09:27:50;;;;;;;5.73;1.53;;;8.70;1.00;;;;;;4836831;29;20234;-74
2023/01/09 09:30:18;;;;;;;2.90;1.20;;;8.60;1.00;;;;;;4855986;29;20689;-75
2023/01/09 09:32:46;;;;;;;2.43;1.27;;;8.60;1.00;;;;;;4849199;29;20543;-75
2023/01/09 09:35:13;;;;;;;6.53;1.30;;;8.50;1.00;;;;;;4851536;29;20215;-75
2023/01/09 09:37:40;;;;;;;2.83;1.30;;;8.40;1.00;;;;;;4847942;29;20240;-74
2023/01/09 09:40:18;;;;;;;2.57;1.30;;;8.50;1.00;;;;;;4835402;29;20218;-75
2023/01/09 09:45:57;;;;;;;4.03;1.33;;;8.50;1.00;;;;;;4848961;29;20201;-75
2023/01/09 09:48:30;;;;;;;5.37;1.40;;;8.50;1.00;;;;;;4832160;29;20225;-75
2023/01/09 09:51:33;;;;;;;5.07;1.70;;;8.40;1.00;;;;;;4836933;29;20742;-75
2023/01/09 09:54:07;;;;;;;4.43;1.17;;;8.50;1.00;;;;;;4851632;29;20279;-75
2023/01/09 09:56:41;;;;;;;5.17;1.40;;;8.60;1.00;;;;;;4848111;29;20209;-74
2023/01/09 09:59:21;;;;;;;7.33;1.73;;;8.50;1.00;;;;;;4847204;29;20207;-74
2023/01/09 10:01:59;;;;;;;6.20;1.83;;;8.40;1.00;;;;;;4854939;29;20237;-75
2023/01/09 10:04:32;;;;;;;3.07;1.10;;;8.40;1.00;;;;;;4858276;29;20242;-76
2023/01/09 10:07:08;;;;;;;2.00;1.40;;;8.40;1.00;;;;;;4856028;29;20563;-76
2023/01/09 10:09:54;;;;;;;4.77;1.43;;;8.50;1.00;;;;;;4849188;29;20203;-76
2023/01/09 10:12:30;;;;;;;3.67;1.40;;;8.40;1.00;;;;;;4846723;29;20544;-76
2023/01/09 10:15:00;;;;;;;3.50;1.47;;;8.30;1.00;;;;;;4852700;29;20232;-76
2023/01/09 10:17:59;;;;;;;3.37;1.13;;;8.20;1.00;;;;;;4856867;29;20222;-76
2023/01/09 10:20:47;;;;;;;1.53;1.00;;;8.20;1.00;;;;;;4855051;29;20683;-75
2023/01/09 10:23:46;;;;;;;4.40;1.63;;;8.30;1.00;;;;;;4853375;29;20579;-75
2023/01/09 10:26:19;;;;;;;8.03;2.07;;;8.30;1.00;;;;;;4838351;29;20685;-74
2023/01/09 10:29:09;;;;;;;11.83;7.07;;;8.20;1.00;;;;;;4850823;29;20202;-75
2023/01/09 10:32:03;;;;;;;4.97;2.20;;;8.20;1.00;;;;;;4845848;29;20219;-76
2023/01/09 10:35:03;;;;;;;3.03;1.33;;;8.10;1.00;;;;;;4859838;29;20691;-76
2023/01/09 10:37:37;;;;;;;3.10;1.50;;;8.20;1.00;;;;;;4860783;29;20205;-76
2023/01/09 10:40:18;;;;;;;4.87;1.63;;;8.30;1.00;;;;;;4844964;29;20206;-76
2023/01/09 10:42:58;;;;;;;2.57;1.33;;;8.20;1.00;;;;;;4859555;29;20305;-75
2023/01/09 10:45:36;;;;;;;8.47;1.70;;;8.30;1.00;;;;;;4846623;29;20205;-78
2023/01/09 10:48:12;;;;;;;5.00;1.63;;;8.40;1.00;;;;;;4855771;29;20566;-77
2023/01/09 10:50:46;;;;;;;5.93;2.03;;;8.30;1.00;;;;;;4861338;29;20197;-76
2023/01/09 10:53:37;;;;;;;4.40;1.70;;;8.20;1.00;;;;;;4844719;29;20258;-76
2023/01/09 10:56:14;;;;;;;3.17;1.40;;;8.40;1.00;;;;;;4851570;29;20214;-78
2023/01/09 10:58:42;;;;;;;5.33;1.73;;;8.40;1.00;;;;;;4836417;29;20224;-78
2023/01/09 11:01:10;;;;;;;4.57;1.90;;;8.30;1.00;;;;;;4843176;29;20292;-79
2023/01/09 11:03:39;;;;;;;4.33;1.70;;;8.50;1.00;;;;;;4837158;29;20734;-81
2023/01/09 11:06:24;;;;;;;4.10;1.70;;;8.60;1.00;;;;;;4853094;29;20218;-81
2023/01/09 11:09:00;;;;;;;4.53;1.87;;;8.70;1.00;;;;;;4841636;29;20674;-82
2023/01/09 11:11:44;;;;;;;4.77;1.93;;;8.70;1.00;;;;;;4846132;29;20217;-80
2023/01/09 11:14:17;;;;;;;2.80;1.60;;;8.80;1.00;;;;;;4852263;29;20195;-80
2023/01/09 11:16:54;;;;;;;3.07;1.90;;;8.80;1.00;;;;;;4850853;29;20710;-78
2023/01/09 11:19:22;;;;;;;4.63;1.80;;;8.90;1.00;;;;;;4852048;29;20206;-79
2023/01/09 11:22:04;;;;;;;4.93;2.07;;;8.80;1.00;;;;;;4838705;29;20228;-79
2023/01/09 11:24:32;;;;;;;3.33;1.77;;;8.80;1.00;;;;;;4842080;29;20207;-81
2023/01/09 11:27:22;;;;;;;3.60;1.90;;;8.90;1.00;;;;;;4839327;29;20221;-80
2023/01/09 11:30:08;;;;;;;7.17;1.80;;;8.90;1.00;;;;;;4856286;29;20199;-77
2023/01/09 11:32:38;;;;;;;3.10;2.00;;;8.90;1.00;;;;;;4847664;29;20532;-79
2023/01/09 11:35:13;;;;;;;6.77;2.20;;;9.10;1.00;;;;;;4862807;29;20234;-78
2023/01/09 11:37:41;;;;;;;5.57;2.00;;;9.10;1.00;;;;;;4844506;29;20607;-77
2023/01/09 11:40:19;;;;;;;2.77;1.80;;;9.30;1.00;;;;;;4843065;29;20305;-77
2023/01/09 11:43:11;;;;;;;6.33;2.47;;;9.20;1.00;;;;;;4859036;29;20215;-79
2023/01/09 11:45:51;;;;;;;2.57;1.80;;;9.20;1.00;;;;;;4826249;29;20214;-78
2023/01/09 11:48:35;;;;;;;8.20;2.20;;;9.30;1.00;;;;;;4847887;29;20193;-78
2023/01/09 11:51:16;;;;;;;6.03;1.97;;;9.30;1.00;;;;;;4857299;29;20265;-77
2023/01/09 11:54:11;;;;;;;3.53;1.73;;;9.10;1.00;;;;;;4843579;29;20277;-77
2023/01/09 11:56:38;;;;;;;3.43;1.90;;;9.00;1.00;;;;;;4838826;29;20710;-78
2023/01/09 11:59:15;;;;;;;4.80;2.13;;;8.90;1.00;;;;;;4854249;29;20210;-79
2023/01/09 12:02:00;;;;;;;3.00;1.73;;;8.90;1.00;;;;;;4858763;29;20206;-77
2023/01/09 12:04:47;;;;;;;4.13;1.97;;;8.90;1.00;;;;;;4862457;29;20277;-77
2023/01/09 12:07:35;;;;;;;3.23;1.50;;;9.00;1.00;;;;;;4839575;29;20205;-77
2023/01/09 12:10:48;;;;;;;2.83;1.63;;;9.00;1.00;;;;;;4858627;29;20228;-77
2023/01/09 12:13:36;;;;;;;3.63;1.60;;;9.10;1.00;;;;;;4821505;29;20692;-78
2023/01/09 12:16:16;;;;;;;5.57;2.10;;;9.10;1.00;;;;;;4809250;29;20211;-77
2023/01/09 12:19:25;;;;;;;5.80;1.80;;;9.20;1.00;;;;;;4849636;29;20206;-77
2023/01/09 12:22:03;;;;;;;5.70;1.83;;;9.30;1.00;;;;;;4857282;29;20210;-77
2023/01/09 12:24:45;;;;;;;5.53;2.10;;;9.40;1.00;;;;;;4858621;29;20525;-78
2023/01/09 12:27:12;;;;;;;3.77;2.10;;;9.30;1.00;;;;;;4856080;29;20203;-78
2023/01/09 12:30:16;;;;;;;2.83;1.80;;;9.20;1.00;;;;;;4854492;29;20708;-78
2023/01/09 12:32:55;;;;;;;3.40;1.70;;;9.00;1.00;;;;;;4855966;29;20718;-78
2023/01/09 12:35:32;;;;;;;5.50;1.77;;;8.80;1.00;;;;;;4842268;29;20209;-77
2023/01/09 12:38:12;;;;;;;5.50;1.80;;;8.70;1.00;;;;;;4855666;29;20210;-77
2023/01/09 12:40:54;;;;;;;4.27;1.60;;;8.70;1.00;;;;;;4855533;29;20202;-77
2023/01/09 12:43:49;;;;;;;3.20;1.80;;;8.80;1.00;;;;;;4863479;29;20273;-78
2023/01/09 12:46:22;;;;;;;6.83;1.83;;;8.70;1.00;;;;;;4857482;29;20207;-77
2023/01/09 12:49:02;;;;;;;5.47;1.50;;;8.70;1.00;;;;;;4852700;29;20283;-77
2023/01/09 12:51:29;;;;;;;6.00;1.83;;;8.70;1.00;;;;;;4850591;29;20229;-77
2023/01/09 12:54:19;;;;;;;6.03;2.20;;;8.70;1.00;;;;;;4841636;29;20207;-77
2023/01/09 12:57:18;;;;;;;5.07;1.77;;;8.60;1.00;;;;;;4853117;29;20256;-77
2023/01/09 12:59:50;;;;;;;4.63;2.00;;;8.70;1.00;;;;;;4829861;29;20323;-78
2023/01/09 13:02:31;;;;;;;5.43;1.97;;;8.80;1.00;;;;;;4848876;29;20233;-78
2023/01/09 13:05:28;;;;;;;7.03;1.67;;;8.90;1.00;;;;;;4857022;29;20591;-77
2023/01/09 13:08:07;;;;;;;4.53;2.00;;;8.80;1.00;;;;;;4850611;29;20283;-77
2023/01/09 13:10:40;;;;;;;8.33;2.07;;;8.70;1.00;;;;;;4845605;29;20199;-77
2023/01/09 13:13:26;;;;;;;4.73;1.80;;;8.60;1.00;;;;;;4861080;29;20560;-77
2023/01/09 13:15:57;;;;;;;5.27;1.97;;;8.50;1.00;;;;;;4851190;29;20206;-77
2023/01/09 13:18:46;;;;;;;4.93;1.80;;;8.50;1.00;;;;;;4865403;29;20336;-77
2023/01/09 13:21:15;;;;;;;4.93;2.03;;;8.40;1.00;;;;;;4844405;29;20215;-77
2023/01/09 13:24:01;;;;;;;3.37;1.73;;;8.50;1.00;;;;;;4861286;29;20202;-78
2023/01/09 13:26:39;;;;;;;6.73;2.57;;;8.30;1.00;;;;;;4860245;29;20663;-78
2023/01/09 13:29:15;;;;;;;5.63;2.10;;;8.30;1.00;;;;;;4852594;29;20651;-78
2023/01/09 13:32:00;;;;;;;4.90;2.30;;;7.40;1.00;;;;;;4854751;29;20215;-77
2023/01/09 13:34:31;;;;;;;6.17;2.03;;;8.20;1.00;;;;;;4853490;29;20205;-77
2023/01/09 13:36:59;;;;;;;6.60;2.37;;;8.10;1.00;;;;;;4844569;29;20614;-77
2023/01/09 13:39:32;;;;;;;4.70;2.60;;;8.10;1.00;;;;;;4844662;29;20209;-77
2023/01/09 13:44:54;;;;;;;3.70;2.50;;;8.20;1.00;;;;;;4851222;29;20587;-84
2023/01/09 13:47:26;;;;;;;4.43;2.10;;;8.30;1.00;;;;;;4842825;29;20223;-84
2023/01/09 13:49:58;;;;;;;5.53;2.40;;;8.30;1.00;;;;;;4835397;29;20210;-83